Time;durP1;ratioP1;P1;durP2;ratioP2;P2;SDS_P1;SDS_P2;PMS_P1;PMS_P2;Temp;Humidity;BMP_temperature;BMP_pressure;BME280_temperature;BME280_humidity;BME280_pressure;Samples;Min_cycle;Max_cycle;Signal;HPM_P1;HPM_P2
2021/10/19 00:00:40;;;;;;;70.50;40.43;;;;;;;9.23;80.85;99846.54;2100999;85;20982;-79
2021/10/19 00:03:42;;;;;;;69.80;42.13;;;;;;;9.21;80.81;99850.81;2130738;84;21330;-79
2021/10/19 00:06:43;;;;;;;67.37;40.43;;;;;;;9.17;80.92;99847.64;2101008;85;20949;-79
2021/10/19 00:09:43;;;;;;;67.70;38.60;;;;;;;9.16;80.89;99849.36;2130888;84;20989;-80
2021/10/19 00:12:44;;;;;;;66.27;39.93;;;;;;;9.17;80.82;99851.55;2100842;85;21008;-78
2021/10/19 00:15:44;;;;;;;67.83;39.63;;;;;;;9.15;80.85;99854.52;2130726;84;20996;-78
2021/10/19 00:18:45;;;;;;;68.17;41.43;;;;;;;9.11;80.74;99854.83;2101144;85;20949;-78
2021/10/19 00:21:45;;;;;;;72.43;40.83;;;;;;;9.09;80.78;99851.70;2130855;84;21368;-78
2021/10/19 00:24:45;;;;;;;74.17;41.23;;;;;;;9.09;80.79;99846.08;2101141;85;21342;-79
2021/10/19 00:27:46;;;;;;;66.83;40.43;;;;;;;9.08;80.75;99845.61;2130588;84;20971;-78
2021/10/19 00:30:47;;;;;;;69.30;39.60;;;;;;;9.10;80.81;99850.45;2100957;85;20925;-78
2021/10/19 00:33:47;;;;;;;68.80;41.70;;;;;;;9.08;80.52;99848.22;2130517;84;20941;-78
2021/10/19 00:36:48;;;;;;;68.70;40.40;;;;;;;9.08;80.55;99853.42;2101085;85;21176;-78
2021/10/19 00:39:48;;;;;;;77.73;46.23;;;;;;;9.05;80.39;99850.72;2130927;84;21281;-78
2021/10/19 00:42:49;;;;;;;80.70;46.53;;;;;;;9.03;80.44;99855.41;2101178;85;21309;-79
2021/10/19 00:45:50;;;;;;;72.90;44.57;;;;;;;9.02;80.66;99854.52;2122867;84;20989;-79
2021/10/19 00:48:51;;;;;;;77.60;43.13;;;;;;;9.01;80.58;99850.14;2122281;84;21042;-78
2021/10/19 00:51:51;;;;;;;67.00;40.60;;;;;;;9.00;80.67;99847.07;2122457;84;20914;-79
2021/10/19 00:54:52;;;;;;;63.60;39.53;;;;;;;8.98;80.66;99846.55;2122315;84;20970;-79
2021/10/19 00:57:52;;;;;;;63.43;40.43;;;;;;;8.97;80.68;99845.67;2122205;84;20954;-79
2021/10/19 01:00:52;;;;;;;72.57;40.83;;;;;;;8.96;80.61;99844.31;2122256;84;21314;-78
2021/10/19 01:03:53;;;;;;;64.93;38.40;;;;;;;8.91;80.69;99839.83;2122370;84;20962;-78
2021/10/19 01:06:53;;;;;;;67.20;38.73;;;;;;;8.89;80.76;99838.02;2122302;84;20941;-79
2021/10/19 01:09:54;;;;;;;66.53;39.83;;;;;;;8.85;80.78;99844.83;2122378;84;20997;-78
2021/10/19 01:12:55;;;;;;;65.93;39.53;;;;;;;8.82;80.68;99838.63;2122184;84;21375;-78
2021/10/19 01:15:56;;;;;;;65.33;38.53;;;;;;;8.74;80.55;99833.58;2122046;84;21002;-78
2021/10/19 01:18:57;;;;;;;62.77;38.83;;;;;;;8.63;80.56;99831.87;2122188;84;20938;-79
2021/10/19 01:21:57;;;;;;;60.27;37.17;;;;;;;8.50;80.44;99834.88;2122157;84;20946;-78
2021/10/19 01:24:58;;;;;;;61.50;37.30;;;;;;;8.38;80.45;99834.43;2122184;84;20910;-78
2021/10/19 01:27:58;;;;;;;60.07;37.73;;;;;;;8.22;80.36;99832.53;2122245;84;21409;-79
2021/10/19 01:30:59;;;;;;;68.27;39.13;;;;;;;8.10;80.53;99828.59;2122373;84;20959;-78
2021/10/19 01:33:59;;;;;;;66.27;38.67;;;;;;;7.99;80.72;99828.20;2122367;84;20930;-78
2021/10/19 01:37:00;;;;;;;62.43;39.10;;;;;;;7.89;80.93;99819.58;2122278;84;20954;-78
2021/10/19 01:40:00;;;;;;;59.87;34.50;;;;;;;7.79;80.94;99822.21;2122530;84;20970;-80
2021/10/19 01:43:01;;;;;;;59.87;35.80;;;;;;;7.71;81.17;99818.84;2122208;84;20942;-78
2021/10/19 01:46:01;;;;;;;56.57;34.07;;;;;;;7.60;80.96;99821.03;2121866;84;21001;-79
2021/10/19 01:49:02;;;;;;;57.97;34.80;;;;;;;7.47;80.80;99824.86;2122322;84;21385;-78
2021/10/19 01:52:02;;;;;;;63.20;36.77;;;;;;;7.34;80.96;99812.21;2122079;84;20946;-79
2021/10/19 01:55:04;;;;;;;59.20;35.20;;;;;;;7.23;81.16;99810.48;2122348;84;20942;-79
2021/10/19 01:58:04;;;;;;;59.90;35.57;;;;;;;7.15;81.28;99805.39;2122232;84;20992;-79
2021/10/19 02:01:05;;;;;;;55.40;34.80;;;;;;;7.10;81.40;99806.03;2122341;84;20930;-78
2021/10/19 02:04:05;;;;;;;55.47;32.40;;;;;;;7.03;81.23;99799.70;2122075;84;20965;-78
2021/10/19 02:07:06;;;;;;;57.07;32.50;;;;;;;6.95;81.28;99795.49;2122307;84;20914;-79
2021/10/19 02:10:06;;;;;;;49.43;32.60;;;;;;;6.85;81.28;99798.50;2122267;84;21306;-79
2021/10/19 02:13:07;;;;;;;58.77;35.73;;;;;;;6.80;81.48;99798.72;2122369;84;21255;-78
2021/10/19 02:16:07;;;;;;;62.07;35.17;;;;;;;6.76;81.71;99802.42;2126076;83;20969;-78
2021/10/19 02:19:08;;;;;;;58.67;35.70;;;;;;;6.69;81.69;99798.68;2122660;83;20918;-79
2021/10/19 02:22:08;;;;;;;52.97;30.97;;;;;;;6.63;81.48;99798.42;2122257;84;21058;-79
2021/10/19 02:25:09;;;;;;;56.40;34.93;;;;;;;6.55;81.11;99802.39;2122355;84;20938;-79
2021/10/19 02:28:09;;;;;;;64.20;37.83;;;;;;;6.48;81.21;99801.66;2121913;84;21025;-79
2021/10/19 02:31:12;;;;;;;60.23;34.97;;;;;;;6.41;81.36;99796.61;2122348;84;20962;-79
2021/10/19 02:34:12;;;;;;;60.97;36.57;;;;;;;6.34;81.45;99804.54;2122668;84;20915;-81
2021/10/19 02:37:16;;;;;;;50.52;32.23;;;;;;;6.26;81.75;99802.02;2155719;82;20941;-79
2021/10/19 02:40:17;;;;;;;60.70;34.73;;;;;;;6.23;81.88;99799.30;2175761;82;21278;-79
2021/10/19 02:43:17;;;;;;;56.57;35.30;;;;;;;6.21;81.77;99802.23;2175772;82;20961;-78
2021/10/19 02:46:18;;;;;;;60.17;36.93;;;;;;;6.15;81.89;99804.55;2150900;82;21049;-78
2021/10/19 02:49:18;;;;;;;58.70;36.47;;;;;;;6.11;82.18;99805.64;2152176;82;20980;-79
2021/10/19 02:52:19;;;;;;;55.83;35.60;;;;;;;6.05;82.33;99803.22;2152109;83;20958;-81
2021/10/19 02:55:20;;;;;;;61.00;35.97;;;;;;;6.01;82.48;99810.37;2152266;83;20937;-81
2021/10/19 02:58:20;;;;;;;57.00;35.10;;;;;;;6.01;82.77;99810.78;2059189;87;20946;-81
2021/10/19 03:01:21;;;;;;;60.30;36.87;;;;;;;6.01;82.70;99809.49;2151929;82;20910;-81
2021/10/19 03:04:21;;;;;;;59.43;35.83;;;;;;;5.98;82.71;99802.47;2152132;83;20958;-81
2021/10/19 03:07:21;;;;;;;58.23;33.97;;;;;;;5.97;82.71;99802.39;2151959;83;20958;-82
2021/10/19 03:10:22;;;;;;;59.63;35.43;;;;;;;5.94;82.60;99800.96;2152144;83;21364;-82
2021/10/19 03:13:24;;;;;;;59.73;35.97;;;;;;;5.93;82.77;99794.00;2152038;83;20942;-82
2021/10/19 03:16:24;;;;;;;53.53;32.63;;;;;;;5.92;82.85;99792.23;2059320;86;21057;-83
2021/10/19 03:19:25;;;;;;;56.30;34.17;;;;;;;5.90;82.75;99796.45;2152370;82;20981;-82
2021/10/19 03:22:26;;;;;;;57.50;31.33;;;;;;;5.89;83.00;99791.69;2059300;87;20997;-82
2021/10/19 03:25:26;;;;;;;60.43;35.63;;;;;;;5.89;82.81;99789.09;2152292;83;20942;-81
2021/10/19 03:28:27;;;;;;;54.87;33.37;;;;;;;5.87;82.78;99791.99;2151546;83;20999;-82
2021/10/19 03:31:30;;;;;;;52.13;31.87;;;;;;;5.86;82.55;99795.40;2151972;83;21141;-84
2021/10/19 03:34:30;;;;;;;55.97;34.07;;;;;;;5.83;82.45;99789.19;2151956;82;20930;-82
2021/10/19 03:37:30;;;;;;;55.10;33.37;;;;;;;5.82;82.74;99793.48;2152142;83;20942;-82
2021/10/19 03:40:31;;;;;;;53.43;33.63;;;;;;;5.85;82.75;99791.44;2152195;83;20954;-82
2021/10/19 03:43:31;;;;;;;53.73;34.37;;;;;;;5.82;82.67;99794.78;2152254;83;20935;-83
2021/10/19 03:46:32;;;;;;;50.00;31.80;;;;;;;5.82;82.82;99795.19;2151692;82;21025;-81
2021/10/19 03:49:32;;;;;;;59.93;33.20;;;;;;;5.80;82.96;99791.23;2152143;83;21032;-82
2021/10/19 03:52:33;;;;;;;51.33;32.83;;;;;;;5.80;82.93;99791.23;2151450;83;20977;-82
2021/10/19 03:55:33;;;;;;;55.27;33.93;;;;;;;5.84;83.19;99793.55;2151750;83;20961;-83
2021/10/19 03:58:34;;;;;;;48.23;30.80;;;;;;;5.80;82.89;99789.94;2152306;83;20953;-82
2021/10/19 04:01:34;;;;;;;53.47;31.70;;;;;;;5.78;82.60;99790.28;2151643;83;21346;-82
2021/10/19 04:04:36;;;;;;;53.97;32.03;;;;;;;5.77;82.54;99788.50;2151860;83;21318;-82
2021/10/19 04:07:37;;;;;;;48.20;30.20;;;;;;;5.76;82.49;99790.62;2151567;83;21028;-81
2021/10/19 04:10:37;;;;;;;47.33;29.47;;;;;;;5.73;82.48;99795.25;2151207;83;20977;-79
2021/10/19 04:13:38;;;;;;;53.50;32.03;;;;;;;5.74;82.52;99801.31;2132085;83;20977;-82
2021/10/19 04:16:38;;;;;;;51.97;30.97;;;;;;;5.73;82.68;99798.25;2149958;83;21053;-82
2021/10/19 04:19:39;;;;;;;50.03;32.30;;;;;;;5.76;82.89;99796.69;2150345;83;20918;-81
2021/10/19 04:22:40;;;;;;;52.97;32.87;;;;;;;5.81;83.05;99809.84;2150239;83;21429;-82
2021/10/19 04:25:41;;;;;;;54.80;26.47;;;;;;;5.82;82.99;99804.26;2150331;83;20934;-82
2021/10/19 04:28:42;;;;;;;47.50;28.33;;;;;;;6.06;89.66;99808.88;2150743;83;20973;-81
2021/10/19 04:31:42;;;;;;;51.20;30.37;;;;;;;7.68;91.71;99804.91;2058435;87;21010;-82
2021/10/19 04:34:43;;;;;;;44.93;27.80;;;;;;;8.47;85.35;99798.33;2150692;82;20954;-82
2021/10/19 04:37:43;;;;;;;52.27;31.60;;;;;;;8.08;80.71;99799.94;2150511;83;20945;-81
2021/10/19 04:40:44;;;;;;;53.13;31.90;;;;;;;9.87;94.51;99792.54;2150568;83;20945;-81
2021/10/19 04:43:44;;;;;;;47.17;27.10;;;;;;;12.00;89.11;99795.50;2151670;83;20976;-81
2021/10/19 04:46:45;;;;;;;51.93;25.77;;;;;;;12.92;78.92;99792.06;2152390;82;21017;-78
2021/10/19 04:49:45;;;;;;;43.63;26.37;;;;;;;11.69;72.54;99797.84;2152544;83;21002;-83
2021/10/19 04:52:46;;;;;;;41.83;26.33;;;;;;;10.45;72.01;99805.59;2152321;83;20986;-82
2021/10/19 04:55:48;;;;;;;45.77;25.77;;;;;;;9.52;72.54;99800.56;2153186;83;20986;-81
2021/10/19 04:58:48;;;;;;;39.03;25.47;;;;;;;8.88;73.23;99802.39;2151622;83;20985;-81
2021/10/19 05:01:49;;;;;;;42.93;26.10;;;;;;;8.42;74.06;99805.98;2151566;83;21290;-81
2021/10/19 05:04:49;;;;;;;41.73;28.87;;;;;;;8.05;74.91;99806.33;2150893;83;20938;-80
2021/10/19 05:07:50;;;;;;;47.70;26.73;;;;;;;7.76;75.66;99809.09;2150924;83;21167;-81
2021/10/19 05:10:50;;;;;;;42.73;26.93;;;;;;;7.57;76.32;99811.81;2151535;83;20970;-82
2021/10/19 05:13:51;;;;;;;43.50;25.10;;;;;;;7.43;76.98;99815.17;2152002;83;20926;-82
2021/10/19 05:16:51;;;;;;;42.20;26.37;;;;;;;7.34;77.36;99813.09;2151517;83;21405;-82
2021/10/19 05:19:52;;;;;;;42.43;26.00;;;;;;;7.28;77.71;99813.27;2151416;83;20938;-81
2021/10/19 05:22:53;;;;;;;40.83;25.20;;;;;;;7.22;78.09;99815.20;2058987;87;20966;-83
2021/10/19 05:25:53;;;;;;;41.00;25.50;;;;;;;7.18;78.49;99806.81;2151450;82;20969;-82
2021/10/19 05:28:53;;;;;;;41.07;25.70;;;;;;;7.15;78.71;99801.91;2151269;83;20962;-81
2021/10/19 05:31:54;;;;;;;40.47;24.97;;;;;;;7.12;79.02;99806.98;2151171;83;21168;-82
2021/10/19 05:34:54;;;;;;;44.20;26.00;;;;;;;7.08;79.19;99807.27;2151372;83;20895;-82
2021/10/19 05:37:56;;;;;;;51.07;26.07;;;;;;;7.07;79.39;99809.80;2151181;83;20946;-82
2021/10/19 05:40:57;;;;;;;65.30;28.60;;;;;;;7.09;79.57;99818.53;2151184;83;21357;-81
2021/10/19 05:43:57;;;;;;;39.20;24.90;;;;;;;7.10;79.68;99817.30;2150758;83;21123;-82
2021/10/19 05:46:58;;;;;;;43.20;26.00;;;;;;;7.11;79.75;99822.08;2176999;82;21012;-82
2021/10/19 05:49:59;;;;;;;43.57;26.63;;;;;;;7.12;79.74;99826.45;2180216;82;21012;-82
2021/10/19 05:53:00;;;;;;;43.97;25.93;;;;;;;7.14;80.01;99824.80;2099944;85;20949;-81
2021/10/19 05:56:00;;;;;;;50.17;29.80;;;;;;;7.17;80.26;99826.23;2129174;84;20942;-83
2021/10/19 05:59:01;;;;;;;48.63;29.83;;;;;;;7.27;80.90;99819.28;2099784;85;20929;-81
2021/10/19 06:02:03;;;;;;;52.80;31.80;;;;;;;7.39;81.07;99813.28;2129302;84;20950;-82
2021/10/19 06:05:03;;;;;;;55.13;33.67;;;;;;;7.53;81.28;99818.60;2100080;85;21416;-80
2021/10/19 06:08:04;;;;;;;60.33;35.70;;;;;;;7.68;81.49;99822.21;2129077;84;20965;-83
2021/10/19 06:11:04;;;;;;;55.30;34.13;;;;;;;7.87;81.59;99829.03;2099866;85;20949;-84
2021/10/19 06:14:06;;;;;;;56.97;35.60;;;;;;;8.05;81.80;99835.34;2129409;84;21602;-85
2021/10/19 06:17:07;;;;;;;58.03;35.17;;;;;;;8.21;81.81;99830.77;2099837;85;21087;-82
2021/10/19 06:20:07;;;;;;;51.37;33.13;;;;;;;8.37;81.61;99826.16;2129560;84;20953;-82
2021/10/19 06:23:08;;;;;;;55.93;32.30;;;;;;;8.52;81.39;99829.30;2099658;85;21006;-84
2021/10/19 06:26:09;;;;;;;60.23;34.23;;;;;;;8.63;81.21;99823.64;2128994;84;20957;-83
2021/10/19 06:29:09;;;;;;;59.57;35.90;;;;;;;8.78;80.91;99823.73;2099106;85;21396;-84
2021/10/19 06:32:10;;;;;;;54.33;33.77;;;;;;;8.91;80.73;99825.52;2128599;84;21345;-83
2021/10/19 06:35:10;;;;;;;58.97;34.73;;;;;;;9.04;80.39;99823.32;2098948;85;21005;-85
2021/10/19 06:38:11;;;;;;;55.27;31.87;;;;;;;9.17;80.23;99826.80;2129169;84;20953;-84
2021/10/19 06:41:11;;;;;;;50.03;31.77;;;;;;;9.27;79.91;99821.05;2099231;85;20977;-84
2021/10/19 06:44:12;;;;;;;52.87;30.93;;;;;;;9.34;79.51;99831.25;2128926;84;20973;-83
2021/10/19 06:47:12;;;;;;;52.33;30.97;;;;;;;9.37;79.35;99827.02;2057783;85;21417;-84
2021/10/19 06:50:13;;;;;;;50.63;30.30;;;;;;;9.44;79.28;99826.80;2146430;82;20974;-85
2021/10/19 06:53:13;;;;;;;45.73;29.60;;;;;;;9.52;79.03;99817.09;2146189;82;20974;-84
2021/10/19 06:56:14;;;;;;;48.23;28.77;;;;;;;9.62;78.34;99812.19;2146198;83;20977;-83
2021/10/19 06:59:14;;;;;;;47.63;28.80;;;;;;;9.75;78.32;99815.64;2146353;83;20977;-83
2021/10/19 07:02:15;;;;;;;47.93;28.23;;;;;;;9.91;78.11;99812.66;2146791;83;21333;-84
2021/10/19 07:05:16;;;;;;;43.27;27.03;;;;;;;10.18;77.79;99813.88;2146905;82;21317;-81
2021/10/19 07:08:16;;;;;;;43.37;26.20;;;;;;;10.43;77.33;99814.22;2053792;87;21086;-83
2021/10/19 07:11:16;;;;;;;47.47;26.97;;;;;;;10.70;76.76;99807.55;2146496;82;20971;-83
2021/10/19 07:14:17;;;;;;;40.87;25.40;;;;;;;11.02;76.54;99807.08;2146337;82;20998;-84
2021/10/19 07:17:18;;;;;;;37.23;23.77;;;;;;;11.49;75.66;99810.87;2145894;83;21017;-83
2021/10/19 07:20:18;;;;;;;27.60;20.48;;;;;;;11.88;74.93;99807.00;2145496;83;21365;-83
2021/10/19 07:23:19;;;;;;;36.98;20.85;;;;;;;12.20;73.36;99804.22;2145461;82;21278;-83
2021/10/19 07:26:19;;;;;;;28.12;20.17;;;;;;;12.35;72.25;99801.91;2145309;83;20946;-82
2021/10/19 07:29:20;;;;;;;31.75;19.95;;;;;;;12.33;71.44;99803.61;2145401;82;20950;-84
2021/10/19 07:32:21;;;;;;;40.78;21.95;;;;;;;12.27;71.26;99809.61;2145031;83;21358;-82
2021/10/19 07:35:22;;;;;;;33.67;20.55;;;;;;;12.26;71.89;99816.13;2145247;82;20946;-83
2021/10/19 07:38:23;;;;;;;31.35;19.55;;;;;;;12.33;71.84;99814.09;2053090;85;21026;-83
2021/10/19 07:41:24;;;;;;;36.50;19.85;;;;;;;12.42;71.25;99815.16;2145687;83;20938;-83
2021/10/19 07:44:24;;;;;;;29.70;17.90;;;;;;;12.47;70.92;99810.00;2146042;82;20935;-83
2021/10/19 07:47:25;;;;;;;35.50;19.87;;;;;;;12.52;70.68;99804.43;2175971;82;21493;-83
2021/10/19 07:50:29;;;;;;;28.95;17.45;;;;;;;12.61;70.93;99798.48;2100141;85;21020;-81
2021/10/19 07:53:28;;;;;;;35.25;18.55;;;;;;;12.72;70.38;99801.75;2129827;83;21001;-81
2021/10/19 07:56:28;;;;;;;28.05;16.55;;;;;;;12.74;69.46;99794.81;2100368;85;21001;-82
2021/10/19 07:59:29;;;;;;;29.50;16.27;;;;;;;12.74;68.62;99796.13;2129836;84;21357;-82
2021/10/19 08:02:30;;;;;;;32.03;17.15;;;;;;;12.76;69.32;99798.77;2099755;85;21281;-82
2021/10/19 08:05:30;;;;;;;24.77;15.68;;;;;;;12.82;68.53;99790.13;2129198;84;20945;-82
2021/10/19 08:08:31;;;;;;;24.80;15.63;;;;;;;12.76;67.76;99797.03;2099498;85;21032;-82
2021/10/19 08:11:33;;;;;;;26.73;15.95;;;;;;;12.74;68.44;99798.73;2128965;84;20934;-83
2021/10/19 08:14:33;;;;;;;26.45;16.12;;;;;;;12.80;68.49;99794.46;2099176;85;20993;-81
2021/10/19 08:17:34;;;;;;;64.70;17.87;;;;;;;12.90;68.23;99797.70;2128694;84;21041;-81
2021/10/19 08:20:34;;;;;;;32.67;15.58;;;;;;;12.98;67.86;99789.55;2098715;85;20992;-83
2021/10/19 08:23:35;;;;;;;20.92;14.43;;;;;;;13.06;67.99;99789.28;2128370;84;20981;-82
2021/10/19 08:26:36;;;;;;;27.95;15.83;;;;;;;13.19;67.84;99795.21;2098753;85;20957;-82
2021/10/19 08:29:36;;;;;;;21.12;13.65;;;;;;;13.35;67.69;99791.98;2129271;84;20941;-83
2021/10/19 08:32:37;;;;;;;23.38;13.80;;;;;;;13.53;65.97;99803.61;2099961;85;21381;-80
2021/10/19 08:35:37;;;;;;;20.97;12.75;;;;;;;13.61;65.97;99807.23;2129828;84;20918;-81
2021/10/19 08:38:38;;;;;;;25.37;12.82;;;;;;;13.76;65.31;99811.81;2099402;85;20981;-80
2021/10/19 08:41:38;;;;;;;20.97;11.60;;;;;;;13.80;64.27;99811.00;2129603;84;20945;-82
2021/10/19 08:44:41;;;;;;;14.65;10.45;;;;;;;13.93;64.74;99815.16;2100182;85;20957;-84
2021/10/19 08:47:41;;;;;;;14.95;10.48;;;;;;;14.11;62.74;99811.02;2106755;84;21086;-82
2021/10/19 08:50:42;;;;;;;22.05;11.68;;;;;;;14.23;62.83;99817.74;2104950;85;21017;-81
2021/10/19 08:53:42;;;;;;;18.10;10.88;;;;;;;14.37;62.93;99823.16;2105147;85;20986;-80
2021/10/19 08:56:43;;;;;;;29.02;10.78;;;;;;;14.46;62.49;99826.81;2105140;85;20947;-79
2021/10/19 08:59:44;;;;;;;15.75;10.68;;;;;;;14.56;61.40;99836.56;2105567;85;20919;-81
2021/10/19 09:02:45;;;;;;;19.10;10.58;;;;;;;14.60;61.79;99822.59;2105728;85;20990;-81
2021/10/19 09:05:46;;;;;;;14.58;9.88;;;;;;;14.72;62.00;99819.66;2105506;85;21338;-82
2021/10/19 09:08:47;;;;;;;14.85;9.90;;;;;;;14.90;61.67;99829.95;2105835;85;20990;-82
2021/10/19 09:11:47;;;;;;;14.28;9.40;;;;;;;15.00;61.17;99823.05;2105849;85;20962;-82
2021/10/19 09:14:48;;;;;;;14.87;9.75;;;;;;;14.97;61.03;99821.27;2059041;87;20981;-82
2021/10/19 09:17:49;;;;;;;17.25;9.78;;;;;;;15.00;61.16;99820.41;2058750;87;21083;-83
2021/10/19 09:20:49;;;;;;;14.10;9.25;;;;;;;14.98;61.07;99819.52;2135223;83;21009;-80
2021/10/19 09:23:50;;;;;;;15.03;10.10;;;;;;;14.94;60.74;99815.09;2135553;83;20957;-81
2021/10/19 09:26:50;;;;;;;14.23;8.93;;;;;;;14.96;60.79;99811.62;2058555;87;20997;-79
2021/10/19 09:29:51;;;;;;;15.60;9.75;;;;;;;14.94;60.17;99805.89;2135440;83;20980;-83
2021/10/19 09:32:52;;;;;;;15.15;9.20;;;;;;;14.94;59.77;99803.27;2135982;83;20968;-80
2021/10/19 09:35:53;;;;;;;13.22;8.85;;;;;;;15.02;59.76;99802.91;2058328;87;20965;-80
2021/10/19 09:38:54;;;;;;;19.65;9.95;;;;;;;15.18;59.79;99794.28;2058642;86;20962;-81
2021/10/19 09:41:56;;;;;;;15.18;8.95;;;;;;;15.30;59.35;99798.33;2039011;87;20975;-82
2021/10/19 09:45:00;;;;;;;15.72;10.63;;;;;;;15.43;57.84;99790.53;2059154;86;20947;-80
2021/10/19 09:48:01;;;;;;;29.98;9.98;;;;;;;15.56;58.57;99791.05;2177515;82;21360;-79
2021/10/19 09:51:01;;;;;;;15.15;9.48;;;;;;;15.77;57.31;99778.53;2100634;85;20973;-81
2021/10/19 09:54:02;;;;;;;14.40;8.95;;;;;;;15.77;57.31;99778.53;2131102;84;20945;-82
2021/10/19 09:57:08;;;;;;;23.90;8.83;;;;;;;15.90;57.91;99777.73;2101235;85;20965;-82
2021/10/19 10:00:09;;;;;;;14.43;8.50;;;;;;;16.01;57.25;99768.12;2130749;84;21189;-82
2021/10/19 10:03:09;;;;;;;10.88;8.38;;;;;;;16.07;57.40;99752.80;2100578;85;20973;-80
2021/10/19 10:06:10;;;;;;;14.47;8.58;;;;;;;16.00;56.09;99752.32;2129782;84;20984;-82
2021/10/19 10:09:10;;;;;;;12.75;8.18;;;;;;;15.99;56.74;99740.91;2101110;85;21008;-81
2021/10/19 10:12:11;;;;;;;18.17;9.25;;;;;;;16.10;57.11;99739.63;2130605;84;20945;-80
2021/10/19 10:15:11;;;;;;;11.45;7.15;;;;;;;16.33;57.12;99733.13;2100795;85;21396;-82
2021/10/19 10:18:12;;;;;;;11.00;6.40;;;;;;;16.46;55.46;99729.20;2130267;83;20988;-84
2021/10/19 10:21:13;;;;;;;8.65;6.12;;;;;;;16.54;55.21;99728.81;2100940;85;20929;-81
2021/10/19 10:24:13;;;;;;;10.60;6.65;;;;;;;16.63;54.79;99726.63;2130366;84;20981;-81
2021/10/19 10:27:14;;;;;;;9.83;6.12;;;;;;;16.72;53.75;99716.57;2100744;85;20988;-82
2021/10/19 10:30:15;;;;;;;8.78;6.10;;;;;;;16.72;53.92;99720.52;2130093;84;21036;-83
2021/10/19 10:33:15;;;;;;;10.48;6.03;;;;;;;16.71;53.79;99706.47;2100624;85;20995;-82
2021/10/19 10:36:16;;;;;;;10.55;6.30;;;;;;;16.73;52.90;99703.83;2130189;84;20976;-82
2021/10/19 10:39:16;;;;;;;7.85;5.62;;;;;;;16.79;53.21;99709.11;2100343;85;20961;-81
2021/10/19 10:42:17;;;;;;;71.33;9.93;;;;;;;16.76;52.56;99699.44;2129590;84;21305;-85
2021/10/19 10:45:18;;;;;;;7.30;5.85;;;;;;;16.78;53.37;99700.76;2100372;85;20968;-83
2021/10/19 10:48:18;;;;;;;12.75;6.65;;;;;;;16.91;53.21;99703.83;2105560;84;21026;-82
2021/10/19 10:51:19;;;;;;;10.32;5.67;;;;;;;17.05;52.42;99694.16;2104108;85;20966;-81
2021/10/19 10:54:19;;;;;;;16.48;5.42;;;;;;;17.11;51.73;99695.91;2103801;85;20970;-83
2021/10/19 10:57:20;;;;;;;10.78;5.22;;;;;;;17.12;49.56;99697.23;2103844;85;20999;-83
2021/10/19 11:00:20;;;;;;;8.78;5.55;;;;;;;17.15;50.77;99693.27;2103477;85;21005;-82
2021/10/19 11:03:21;;;;;;;10.35;5.75;;;;;;;17.16;51.86;99695.02;2104215;85;20942;-83
2021/10/19 11:06:21;;;;;;;10.15;6.65;;;;;;;17.26;51.80;99691.05;2104892;85;20938;-82
2021/10/19 11:09:23;;;;;;;12.93;5.95;;;;;;;17.36;52.23;99686.23;2104543;85;21409;-83
2021/10/19 11:12:24;;;;;;;9.90;6.00;;;;;;;17.33;51.07;99686.20;2057683;87;20938;-83
2021/10/19 11:15:24;;;;;;;17.50;6.78;;;;;;;17.22;50.55;99678.75;2057881;86;20969;-82
2021/10/19 11:18:27;;;;;;;23.38;7.15;;;;;;;17.29;51.54;99671.26;2057712;87;21013;-84
2021/10/19 11:21:27;;;;;;;9.85;6.17;;;;;;;17.35;51.35;99672.59;2058020;87;21049;-82
2021/10/19 11:24:28;;;;;;;12.40;6.15;;;;;;;17.40;51.51;99672.14;2058203;87;21009;-82
2021/10/19 11:27:28;;;;;;;9.93;5.58;;;;;;;17.41;49.68;99673.46;2057704;87;20969;-81
2021/10/19 11:30:29;;;;;;;9.48;5.90;;;;;;;17.37;49.20;99672.16;2057583;87;21056;-82
2021/10/19 11:33:29;;;;;;;9.50;6.65;;;;;;;17.23;49.50;99661.59;2058068;87;20977;-82
2021/10/19 11:36:30;;;;;;;8.73;5.83;;;;;;;17.29;50.78;99672.58;2057784;87;21410;-82
2021/10/19 11:39:30;;;;;;;9.00;5.72;;;;;;;17.31;48.84;99665.53;2058530;86;21004;-81
2021/10/19 11:42:31;;;;;;;12.53;6.30;;;;;;;17.34;49.08;99662.89;2058426;86;20976;-80
2021/10/19 11:45:32;;;;;;;892.70;78.55;;;;;;;17.44;50.11;99663.34;2058893;86;20966;-81
2021/10/19 11:48:32;;;;;;;18.10;6.30;;;;;;;17.56;50.34;99659.34;2176695;82;20972;-81
2021/10/19 11:51:33;;;;;;;17.70;5.70;;;;;;;17.65;49.61;99659.75;2180767;82;20992;-83
2021/10/19 11:54:35;;;;;;;7.50;5.05;;;;;;;17.65;49.27;99657.98;2180451;82;20901;-84
2021/10/19 11:57:35;;;;;;;6.78;4.78;;;;;;;17.62;47.89;99642.16;2099992;85;21389;-82
2021/10/19 12:00:36;;;;;;;9.68;5.87;;;;;;;17.58;48.70;99640.41;2129473;84;21044;-81
2021/10/19 12:03:36;;;;;;;13.62;5.75;;;;;;;17.54;48.79;99634.70;2099222;85;20933;-81
2021/10/19 12:06:37;;;;;;;7.15;4.62;;;;;;;17.56;48.58;99628.98;2128923;84;21082;-82
2021/10/19 12:09:38;;;;;;;15.80;5.72;;;;;;;17.57;47.97;99624.14;2100122;85;21009;-81
2021/10/19 12:12:39;;;;;;;19.37;5.20;;;;;;;17.54;47.69;99618.88;2129148;84;21478;-81
2021/10/19 12:15:41;;;;;;;7.08;4.60;;;;;;;17.54;48.28;99617.55;2099666;85;20985;-82
2021/10/19 12:18:41;;;;;;;7.40;5.17;;;;;;;17.54;47.93;99611.39;2129455;84;21029;-80
2021/10/19 12:21:42;;;;;;;34.50;5.53;;;;;;;17.50;48.60;99606.13;2099229;85;20965;-81
2021/10/19 12:24:43;;;;;;;189.40;13.65;;;;;;;17.54;48.57;99588.52;2129149;84;20981;-79
2021/10/19 12:27:43;;;;;;;24.63;5.28;;;;;;;17.69;48.61;99588.47;2099512;85;20933;-81
2021/10/19 12:30:44;;;;;;;9.43;4.22;;;;;;;17.83;47.33;99595.88;2099479;85;21246;-80
2021/10/19 12:33:45;;;;;;;5.58;3.75;;;;;;;17.87;47.15;99594.55;2100450;85;20989;-78
2021/10/19 12:36:46;;;;;;;6.33;3.72;;;;;;;17.91;46.75;99583.08;2099819;85;21012;-82
2021/10/19 12:39:48;;;;;;;4.15;3.40;;;;;;;17.96;45.87;99578.64;2100197;85;20976;-82
2021/10/19 12:42:49;;;;;;;5.53;3.62;;;;;;;17.84;45.80;99571.67;2099941;85;21029;-81
2021/10/19 12:45:49;;;;;;;5.78;3.90;;;;;;;17.78;46.18;99565.10;2099704;85;20997;-79
2021/10/19 12:48:50;;;;;;;5.15;3.50;;;;;;;17.66;46.38;99566.45;2099247;85;21032;-81
2021/10/19 12:51:50;;;;;;;6.65;3.90;;;;;;;17.55;47.89;99575.75;2099513;85;21025;-81
2021/10/19 12:54:51;;;;;;;5.28;4.00;;;;;;;17.54;47.89;99588.95;2099660;85;21005;-82
2021/10/19 12:57:53;;;;;;;6.78;4.15;;;;;;;17.46;47.66;99587.67;2099346;85;20961;-82
2021/10/19 13:00:53;;;;;;;9.45;4.00;;;;;;;17.38;47.48;99573.19;2099287;85;21237;-80
2021/10/19 13:03:56;;;;;;;9.65;4.53;;;;;;;17.22;47.92;99565.30;2099197;85;20985;-82
2021/10/19 13:06:56;;;;;;;8.60;4.53;;;;;;;17.03;48.62;99554.81;2099110;85;21387;-81
2021/10/19 13:09:57;;;;;;;7.28;4.80;;;;;;;17.01;48.26;99561.84;2100653;85;21025;-80
2021/10/19 13:12:57;;;;;;;10.48;4.47;;;;;;;17.00;48.14;99552.63;2100182;85;20941;-80
2021/10/19 13:15:58;;;;;;;9.50;5.53;;;;;;;17.07;48.54;99542.05;2099907;85;20989;-79
2021/10/19 13:18:58;;;;;;;10.05;5.08;;;;;;;17.14;48.79;99537.19;2100343;85;20993;-80
2021/10/19 13:21:59;;;;;;;105.58;11.48;;;;;;;17.11;48.76;99529.28;2100397;85;20969;-78
2021/10/19 13:24:59;;;;;;;32.48;6.40;;;;;;;17.07;48.78;99530.63;2130382;84;20996;-81
2021/10/19 13:28:00;;;;;;;7.03;4.05;;;;;;;17.01;48.94;99527.56;2100561;85;20985;-80
2021/10/19 13:31:00;;;;;;;7.70;5.08;;;;;;;17.08;48.63;99517.42;2130042;84;20997;-79
2021/10/19 13:34:01;;;;;;;9.33;5.60;;;;;;;17.13;49.20;99518.73;2100398;85;20957;-79
2021/10/19 13:37:01;;;;;;;8.50;4.58;;;;;;;17.27;49.08;99516.03;2130736;84;21373;-81
2021/10/19 13:40:03;;;;;;;8.68;5.12;;;;;;;17.25;48.79;99508.13;2100437;85;20937;-80
2021/10/19 13:43:04;;;;;;;15.65;6.60;;;;;;;17.04;48.86;99509.09;2130460;84;20993;-79
2021/10/19 13:46:04;;;;;;;7.55;4.70;;;;;;;16.85;49.26;99522.77;2100817;85;20989;-79
2021/10/19 13:49:05;;;;;;;13.32;6.05;;;;;;;16.64;48.80;99517.95;2130401;84;20998;-82
2021/10/19 13:52:05;;;;;;;10.50;5.70;;;;;;;16.47;49.98;99529.81;2101155;85;20953;-80
2021/10/19 13:55:09;;;;;;;8.38;5.85;;;;;;;16.32;50.35;99524.11;2130863;84;21329;-80
2021/10/19 13:58:09;;;;;;;12.83;6.17;;;;;;;16.22;50.91;99518.41;2101119;85;20968;-79